sensor_id;sensor_type;location;lat;lon;timestamp;pressure;altitude;pressure_sealevel;temperature;humidity
67987;BME280;54767;53.800;15.956;2022-11-20T00:01:36;99773.16;;;-1.40;71.85
67987;BME280;54767;53.800;15.956;2022-11-20T00:04:04;99768.54;;;-1.36;71.75
67987;BME280;54767;53.800;15.956;2022-11-20T00:06:33;99764.27;;;-1.31;71.78
67987;BME280;54767;53.800;15.956;2022-11-20T00:09:01;99771.80;;;-1.27;71.95
67987;BME280;54767;53.800;15.956;2022-11-20T00:11:32;99770.77;;;-1.23;72.00
67987;BME280;54767;53.800;15.956;2022-11-20T00:14:01;99777.41;;;-1.20;71.84
67987;BME280;54767;53.800;15.956;2022-11-20T00:16:32;99779.33;;;-1.20;71.85
67987;BME280;54767;53.800;15.956;2022-11-20T00:19:01;99779.59;;;-1.21;72.11
67987;BME280;54767;53.800;15.956;2022-11-20T00:21:29;99783.91;;;-1.25;72.19
67987;BME280;54767;53.800;15.956;2022-11-20T00:23:58;99786.98;;;-1.26;72.03
67987;BME280;54767;53.800;15.956;2022-11-20T00:26:28;99784.92;;;-1.25;72.12
67987;BME280;54767;53.800;15.956;2022-11-20T00:28:58;99785.59;;;-1.21;72.06
67987;BME280;54767;53.800;15.956;2022-11-20T00:31:28;99788.92;;;-1.16;71.95
67987;BME280;54767;53.800;15.956;2022-11-20T00:33:56;99789.79;;;-1.11;72.10
67987;BME280;54767;53.800;15.956;2022-11-20T00:36:27;99798.55;;;-1.07;72.12
67987;BME280;54767;53.800;15.956;2022-11-20T00:38:57;99796.67;;;-1.03;72.00
67987;BME280;54767;53.800;15.956;2022-11-20T00:41:26;99797.91;;;-1.02;72.22
67987;BME280;54767;53.800;15.956;2022-11-20T00:43:56;99800.48;;;-1.02;72.18
67987;BME280;54767;53.800;15.956;2022-11-20T00:46:26;99799.17;;;-1.05;72.31
67987;BME280;54767;53.800;15.956;2022-11-20T00:48:56;99796.27;;;-1.08;72.14
67987;BME280;54767;53.800;15.956;2022-11-20T00:51:26;99795.57;;;-1.13;72.15
67987;BME280;54767;53.800;15.956;2022-11-20T00:53:56;99796.85;;;-1.15;72.45
67987;BME280;54767;53.800;15.956;2022-11-20T00:56:25;99794.33;;;-1.14;72.64
67987;BME280;54767;53.800;15.956;2022-11-20T00:58:53;99799.55;;;-1.12;72.37
67987;BME280;54767;53.800;15.956;2022-11-20T01:01:24;99801.20;;;-1.09;72.71
67987;BME280;54767;53.800;15.956;2022-11-20T01:03:55;99797.41;;;-1.10;72.45
67987;BME280;54767;53.800;15.956;2022-11-20T01:06:27;99799.77;;;-1.11;72.61
67987;BME280;54767;53.800;15.956;2022-11-20T01:08:58;99799.05;;;-1.11;72.66
67987;BME280;54767;53.800;15.956;2022-11-20T01:11:32;99796.06;;;-1.14;72.49
67987;BME280;54767;53.800;15.956;2022-11-20T01:14:03;99789.86;;;-1.18;72.49
67987;BME280;54767;53.800;15.956;2022-11-20T01:16:34;99788.75;;;-1.20;72.59
67987;BME280;54767;53.800;15.956;2022-11-20T01:19:05;99783.81;;;-1.19;72.88
67987;BME280;54767;53.800;15.956;2022-11-20T01:21:37;99787.06;;;-1.15;72.84
67987;BME280;54767;53.800;15.956;2022-11-20T01:24:07;99780.79;;;-1.14;73.03
67987;BME280;54767;53.800;15.956;2022-11-20T01:26:38;99781.34;;;-1.17;72.82
67987;BME280;54767;53.800;15.956;2022-11-20T01:29:10;99779.59;;;-1.18;73.10
67987;BME280;54767;53.800;15.956;2022-11-20T01:31:41;99770.73;;;-1.16;72.90
67987;BME280;54767;53.800;15.956;2022-11-20T01:34:12;99764.45;;;-1.14;72.81
67987;BME280;54767;53.800;15.956;2022-11-20T01:36:42;99765.14;;;-1.14;72.59
67987;BME280;54767;53.800;15.956;2022-11-20T01:39:16;99765.06;;;-1.11;72.58
67987;BME280;54767;53.800;15.956;2022-11-20T01:41:46;99763.58;;;-1.06;72.55
67987;BME280;54767;53.800;15.956;2022-11-20T01:44:57;99755.39;;;-1.00;72.69
67987;BME280;54767;53.800;15.956;2022-11-20T01:47:36;99756.55;;;-0.97;72.72
67987;BME280;54767;53.800;15.956;2022-11-20T01:50:16;99751.66;;;-0.95;72.51
67987;BME280;54767;53.800;15.956;2022-11-20T01:52:54;99750.29;;;-0.95;72.45
67987;BME280;54767;53.800;15.956;2022-11-20T01:55:36;99748.91;;;-0.95;72.18
67987;BME280;54767;53.800;15.956;2022-11-20T01:58:08;99745.23;;;-0.97;72.59
67987;BME280;54767;53.800;15.956;2022-11-20T02:00:36;99748.30;;;-0.97;72.44
67987;BME280;54767;53.800;15.956;2022-11-20T02:03:13;99744.79;;;-0.99;72.21
67987;BME280;54767;53.800;15.956;2022-11-20T02:08:27;99734.77;;;-0.96;72.23
67987;BME280;54767;53.800;15.956;2022-11-20T02:10:56;99740.60;;;-0.92;72.24
67987;BME280;54767;53.800;15.956;2022-11-20T02:13:24;99734.15;;;-0.90;72.15
67987;BME280;54767;53.800;15.956;2022-11-20T02:16:24;99727.14;;;-0.89;72.10
67987;BME280;54767;53.800;15.956;2022-11-20T02:18:54;99726.06;;;-0.91;72.01
67987;BME280;54767;53.800;15.956;2022-11-20T02:21:28;99720.86;;;-0.92;71.88
67987;BME280;54767;53.800;15.956;2022-11-20T02:26:32;99718.15;;;-0.95;71.77
67987;BME280;54767;53.800;15.956;2022-11-20T02:29:02;99715.82;;;-0.98;72.00
67987;BME280;54767;53.800;15.956;2022-11-20T02:31:41;99709.89;;;-1.00;71.84
67987;BME280;54767;53.800;15.956;2022-11-20T02:34:10;99718.64;;;-1.00;71.48
67987;BME280;54767;53.800;15.956;2022-11-20T02:36:40;99712.72;;;-0.98;71.72
67987;BME280;54767;53.800;15.956;2022-11-20T02:39:11;99707.79;;;-0.96;71.84
67987;BME280;54767;53.800;15.956;2022-11-20T02:41:41;99706.98;;;-0.96;71.79
67987;BME280;54767;53.800;15.956;2022-11-20T02:44:09;99706.80;;;-0.95;71.64
67987;BME280;54767;53.800;15.956;2022-11-20T02:46:38;99715.38;;;-0.96;71.70
67987;BME280;54767;53.800;15.956;2022-11-20T02:49:06;99713.25;;;-0.98;71.72
67987;BME280;54767;53.800;15.956;2022-11-20T02:51:35;99717.63;;;-0.99;71.68
67987;BME280;54767;53.800;15.956;2022-11-20T02:54:03;99719.82;;;-1.01;71.83
67987;BME280;54767;53.800;15.956;2022-11-20T02:56:32;99722.31;;;-1.03;71.64
67987;BME280;54767;53.800;15.956;2022-11-20T02:59:00;99719.02;;;-1.04;71.49
67987;BME280;54767;53.800;15.956;2022-11-20T03:01:28;99720.60;;;-1.03;71.71
67987;BME280;54767;53.800;15.956;2022-11-20T03:03:57;99717.59;;;-1.01;71.60
67987;BME280;54767;53.800;15.956;2022-11-20T03:06:25;99717.47;;;-0.99;71.74
67987;BME280;54767;53.800;15.956;2022-11-20T03:08:54;99715.24;;;-0.99;71.73
67987;BME280;54767;53.800;15.956;2022-11-20T03:11:22;99714.76;;;-0.99;71.61
67987;BME280;54767;53.800;15.956;2022-11-20T03:13:50;99711.98;;;-0.99;71.63
67987;BME280;54767;53.800;15.956;2022-11-20T03:16:21;99715.57;;;-1.00;71.94
67987;BME280;54767;53.800;15.956;2022-11-20T03:18:52;99715.89;;;-1.00;71.96
67987;BME280;54767;53.800;15.956;2022-11-20T03:21:20;99719.08;;;-1.02;71.86
67987;BME280;54767;53.800;15.956;2022-11-20T03:23:49;99713.12;;;-1.01;71.81
67987;BME280;54767;53.800;15.956;2022-11-20T03:26:20;99707.52;;;-0.99;72.03
67987;BME280;54767;53.800;15.956;2022-11-20T03:28:51;99701.89;;;-0.98;72.05
67987;BME280;54767;53.800;15.956;2022-11-20T03:31:22;99701.92;;;-0.98;72.07
67987;BME280;54767;53.800;15.956;2022-11-20T03:33:51;99696.90;;;-0.98;71.76
67987;BME280;54767;53.800;15.956;2022-11-20T03:36:20;99699.91;;;-0.96;71.90
67987;BME280;54767;53.800;15.956;2022-11-20T03:38:49;99695.81;;;-0.95;72.00
67987;BME280;54767;53.800;15.956;2022-11-20T03:41:20;99697.64;;;-0.97;71.84
67987;BME280;54767;53.800;15.956;2022-11-20T03:46:22;99692.73;;;-0.99;71.94
67987;BME280;54767;53.800;15.956;2022-11-20T03:48:51;99693.02;;;-1.01;71.83
67987;BME280;54767;53.800;15.956;2022-11-20T03:53:55;99694.61;;;-1.00;71.90
67987;BME280;54767;53.800;15.956;2022-11-20T03:56:26;99695.21;;;-0.98;71.85
67987;BME280;54767;53.800;15.956;2022-11-20T03:58:56;99695.06;;;-0.97;71.66
67987;BME280;54767;53.800;15.956;2022-11-20T04:01:28;99695.97;;;-0.96;71.95
67987;BME280;54767;53.800;15.956;2022-11-20T04:03:57;99695.27;;;-0.96;71.99
67987;BME280;54767;53.800;15.956;2022-11-20T04:06:28;99692.50;;;-0.97;71.90
67987;BME280;54767;53.800;15.956;2022-11-20T04:08:58;99693.78;;;-0.99;71.56
67987;BME280;54767;53.800;15.956;2022-11-20T04:11:29;99690.76;;;-1.02;71.64
67987;BME280;54767;53.800;15.956;2022-11-20T04:13:59;99692.71;;;-1.04;71.93
67987;BME280;54767;53.800;15.956;2022-11-20T04:16:30;99684.38;;;-1.06;71.82
67987;BME280;54767;53.800;15.956;2022-11-20T04:19:01;99686.47;;;-1.02;71.87
67987;BME280;54767;53.800;15.956;2022-11-20T04:21:30;99681.63;;;-0.98;71.98
67987;BME280;54767;53.800;15.956;2022-11-20T04:23:59;99683.98;;;-0.95;71.95
67987;BME280;54767;53.800;15.956;2022-11-20T04:26:28;99674.56;;;-0.95;71.67
67987;BME280;54767;53.800;15.956;2022-11-20T04:28:57;99678.88;;;-0.94;71.92
67987;BME280;54767;53.800;15.956;2022-11-20T04:31:28;99675.34;;;-0.96;71.96
67987;BME280;54767;53.800;15.956;2022-11-20T04:34:05;99678.06;;;-0.97;71.81
67987;BME280;54767;53.800;15.956;2022-11-20T04:36:33;99671.66;;;-0.98;72.01
67987;BME280;54767;53.800;15.956;2022-11-20T04:39:05;99675.54;;;-1.00;71.98
67987;BME280;54767;53.800;15.956;2022-11-20T04:41:35;99675.56;;;-0.99;71.97
67987;BME280;54767;53.800;15.956;2022-11-20T04:44:05;99672.05;;;-0.97;71.93
67987;BME280;54767;53.800;15.956;2022-11-20T04:46:39;99672.05;;;-0.93;71.99
67987;BME280;54767;53.800;15.956;2022-11-20T04:49:08;99669.57;;;-0.90;71.79
67987;BME280;54767;53.800;15.956;2022-11-20T04:51:37;99670.52;;;-0.87;71.86
67987;BME280;54767;53.800;15.956;2022-11-20T04:54:05;99668.52;;;-0.86;71.77
67987;BME280;54767;53.800;15.956;2022-11-20T04:56:33;99668.67;;;-0.87;71.94
67987;BME280;54767;53.800;15.956;2022-11-20T04:59:02;99662.23;;;-0.89;71.91
67987;BME280;54767;53.800;15.956;2022-11-20T05:01:31;99658.46;;;-0.93;71.96
67987;BME280;54767;53.800;15.956;2022-11-20T05:04:00;99657.30;;;-0.97;72.18
67987;BME280;54767;53.800;15.956;2022-11-20T05:06:29;99657.05;;;-0.99;72.02
67987;BME280;54767;53.800;15.956;2022-11-20T05:08:58;99651.98;;;-0.96;72.17
67987;BME280;54767;53.800;15.956;2022-11-20T05:11:26;99657.27;;;-0.93;72.09
67987;BME280;54767;53.800;15.956;2022-11-20T05:13:58;99651.48;;;-0.96;72.30
67987;BME280;54767;53.800;15.956;2022-11-20T05:16:26;99653.81;;;-1.02;72.07
67987;BME280;54767;53.800;15.956;2022-11-20T05:18:55;99655.23;;;-1.10;72.20
67987;BME280;54767;53.800;15.956;2022-11-20T05:21:24;99652.94;;;-1.20;72.27
67987;BME280;54767;53.800;15.956;2022-11-20T05:23:52;99655.61;;;-1.27;72.65
67987;BME280;54767;53.800;15.956;2022-11-20T05:26:21;99649.96;;;-1.26;72.70
67987;BME280;54767;53.800;15.956;2022-11-20T05:28:51;99654.30;;;-1.21;72.85
67987;BME280;54767;53.800;15.956;2022-11-20T05:31:22;99648.54;;;-1.14;72.83
67987;BME280;54767;53.800;15.956;2022-11-20T05:33:56;99648.23;;;-1.08;72.65
67987;BME280;54767;53.800;15.956;2022-11-20T05:36:25;99648.70;;;-1.06;72.45
67987;BME280;54767;53.800;15.956;2022-11-20T05:38:53;99647.19;;;-1.05;72.49
67987;BME280;54767;53.800;15.956;2022-11-20T05:41:28;99648.74;;;-1.05;72.55
67987;BME280;54767;53.800;15.956;2022-11-20T05:43:57;99648.57;;;-1.04;72.72
67987;BME280;54767;53.800;15.956;2022-11-20T05:46:26;99643.39;;;-1.05;72.49
67987;BME280;54767;53.800;15.956;2022-11-20T05:48:57;99644.42;;;-1.05;72.57
67987;BME280;54767;53.800;15.956;2022-11-20T05:51:26;99642.93;;;-1.04;72.78
67987;BME280;54767;53.800;15.956;2022-11-20T05:53:57;99645.21;;;-0.98;72.62
67987;BME280;54767;53.800;15.956;2022-11-20T05:56:26;99640.75;;;-0.94;72.46
67987;BME280;54767;53.800;15.956;2022-11-20T05:58:55;99640.14;;;-0.92;72.34
67987;BME280;54767;53.800;15.956;2022-11-20T06:01:25;99636.22;;;-0.91;72.23
67987;BME280;54767;53.800;15.956;2022-11-20T06:03:54;99636.09;;;-0.90;72.39
67987;BME280;54767;53.800;15.956;2022-11-20T06:06:23;99632.16;;;-0.89;72.23
67987;BME280;54767;53.800;15.956;2022-11-20T06:08:51;99631.45;;;-0.89;72.35
67987;BME280;54767;53.800;15.956;2022-11-20T06:11:21;99631.75;;;-0.91;72.35
67987;BME280;54767;53.800;15.956;2022-11-20T06:13:49;99632.21;;;-0.92;72.45
67987;BME280;54767;53.800;15.956;2022-11-20T06:16:19;99632.17;;;-0.94;72.48
67987;BME280;54767;53.800;15.956;2022-11-20T06:18:48;99631.15;;;-0.93;72.20
67987;BME280;54767;53.800;15.956;2022-11-20T06:21:19;99628.52;;;-0.90;72.09
67987;BME280;54767;53.800;15.956;2022-11-20T06:23:49;99628.79;;;-0.87;72.32
67987;BME280;54767;53.800;15.956;2022-11-20T06:26:19;99628.02;;;-0.85;72.31
67987;BME280;54767;53.800;15.956;2022-11-20T06:28:48;99627.15;;;-0.85;72.10
67987;BME280;54767;53.800;15.956;2022-11-20T06:31:19;99620.83;;;-0.84;72.48
67987;BME280;54767;53.800;15.956;2022-11-20T06:33:49;99626.50;;;-0.84;72.50
67987;BME280;54767;53.800;15.956;2022-11-20T06:36:20;99629.41;;;-0.84;72.47
67987;BME280;54767;53.800;15.956;2022-11-20T06:38:49;99627.45;;;-0.86;72.08
67987;BME280;54767;53.800;15.956;2022-11-20T06:41:20;99629.48;;;-0.87;72.30
67987;BME280;54767;53.800;15.956;2022-11-20T06:43:49;99629.38;;;-0.86;72.36
67987;BME280;54767;53.800;15.956;2022-11-20T06:46:19;99626.43;;;-0.82;72.37
67987;BME280;54767;53.800;15.956;2022-11-20T06:48:48;99628.08;;;-0.79;72.11
67987;BME280;54767;53.800;15.956;2022-11-20T06:51:17;99629.19;;;-0.77;72.47
67987;BME280;54767;53.800;15.956;2022-11-20T06:53:45;99627.17;;;-0.76;72.23
67987;BME280;54767;53.800;15.956;2022-11-20T06:56:13;99621.52;;;-0.75;72.43
67987;BME280;54767;53.800;15.956;2022-11-20T06:58:42;99619.30;;;-0.75;72.40
67987;BME280;54767;53.800;15.956;2022-11-20T07:01:13;99616.14;;;-0.77;72.26
67987;BME280;54767;53.800;15.956;2022-11-20T07:03:42;99618.24;;;-0.76;72.30
67987;BME280;54767;53.800;15.956;2022-11-20T07:06:10;99616.83;;;-0.77;72.42
67987;BME280;54767;53.800;15.956;2022-11-20T07:08:39;99621.80;;;-0.77;72.23
67987;BME280;54767;53.800;15.956;2022-11-20T07:11:08;99616.83;;;-0.76;72.21
67987;BME280;54767;53.800;15.956;2022-11-20T07:13:36;99613.20;;;-0.72;72.27
67987;BME280;54767;53.800;15.956;2022-11-20T07:16:07;99610.94;;;-0.69;72.57
67987;BME280;54767;53.800;15.956;2022-11-20T07:18:36;99605.72;;;-0.65;72.41
67987;BME280;54767;53.800;15.956;2022-11-20T07:21:07;99612.01;;;-0.63;72.66
67987;BME280;54767;53.800;15.956;2022-11-20T07:23:36;99611.16;;;-0.62;72.32
67987;BME280;54767;53.800;15.956;2022-11-20T07:26:09;99612.35;;;-0.63;72.41
67987;BME280;54767;53.800;15.956;2022-11-20T07:28:38;99610.08;;;-0.63;72.25
67987;BME280;54767;53.800;15.956;2022-11-20T07:31:06;99604.73;;;-0.64;72.22
67987;BME280;54767;53.800;15.956;2022-11-20T07:33:35;99599.70;;;-0.65;72.34
67987;BME280;54767;53.800;15.956;2022-11-20T07:36:04;99599.53;;;-0.65;72.50
67987;BME280;54767;53.800;15.956;2022-11-20T07:38:32;99596.39;;;-0.62;72.65
67987;BME280;54767;53.800;15.956;2022-11-20T07:41:01;99595.48;;;-0.58;72.70
67987;BME280;54767;53.800;15.956;2022-11-20T07:43:30;99595.76;;;-0.56;72.53
67987;BME280;54767;53.800;15.956;2022-11-20T07:46:04;99593.77;;;-0.54;72.62
67987;BME280;54767;53.800;15.956;2022-11-20T07:48:32;99588.02;;;-0.52;72.76
67987;BME280;54767;53.800;15.956;2022-11-20T07:51:00;99587.92;;;-0.49;72.66
67987;BME280;54767;53.800;15.956;2022-11-20T07:53:29;99587.10;;;-0.49;72.92
67987;BME280;54767;53.800;15.956;2022-11-20T07:56:01;99585.88;;;-0.49;72.86
67987;BME280;54767;53.800;15.956;2022-11-20T07:58:30;99585.21;;;-0.48;72.72
67987;BME280;54767;53.800;15.956;2022-11-20T08:01:07;99581.96;;;-0.48;72.45
67987;BME280;54767;53.800;15.956;2022-11-20T08:03:36;99577.30;;;-0.43;72.39
67987;BME280;54767;53.800;15.956;2022-11-20T08:06:07;99572.82;;;-0.38;72.53
67987;BME280;54767;53.800;15.956;2022-11-20T08:08:36;99573.57;;;-0.37;72.88
67987;BME280;54767;53.800;15.956;2022-11-20T08:11:09;99573.94;;;-0.36;73.03
67987;BME280;54767;53.800;15.956;2022-11-20T08:13:56;99571.50;;;-0.37;73.05
67987;BME280;54767;53.800;15.956;2022-11-20T08:16:44;99570.66;;;-0.37;73.20
67987;BME280;54767;53.800;15.956;2022-11-20T08:19:14;99568.78;;;-0.36;73.23
67987;BME280;54767;53.800;15.956;2022-11-20T08:21:44;99565.82;;;-0.32;73.15
67987;BME280;54767;53.800;15.956;2022-11-20T08:24:12;99564.65;;;-0.26;73.23
67987;BME280;54767;53.800;15.956;2022-11-20T08:26:41;99563.17;;;-0.19;73.42
67987;BME280;54767;53.800;15.956;2022-11-20T08:29:09;99567.15;;;-0.14;73.01
67987;BME280;54767;53.800;15.956;2022-11-20T08:31:38;99567.09;;;-0.10;73.16
67987;BME280;54767;53.800;15.956;2022-11-20T08:34:26;99563.59;;;-0.07;72.85
67987;BME280;54767;53.800;15.956;2022-11-20T08:36:54;99562.79;;;-0.05;73.43
67987;BME280;54767;53.800;15.956;2022-11-20T08:39:23;99560.80;;;-0.03;73.10
67987;BME280;54767;53.800;15.956;2022-11-20T08:41:51;99561.86;;;-0.02;73.09
67987;BME280;54767;53.800;15.956;2022-11-20T08:44:20;99560.42;;;0.01;72.91
67987;BME280;54767;53.800;15.956;2022-11-20T08:46:48;99554.78;;;0.08;72.84
67987;BME280;54767;53.800;15.956;2022-11-20T08:49:16;99551.55;;;0.14;72.83
67987;BME280;54767;53.800;15.956;2022-11-20T08:51:46;99551.41;;;0.20;72.96
67987;BME280;54767;53.800;15.956;2022-11-20T08:54:19;99550.52;;;0.25;72.81
67987;BME280;54767;53.800;15.956;2022-11-20T08:56:49;99546.98;;;0.28;72.46
67987;BME280;54767;53.800;15.956;2022-11-20T08:59:18;99544.17;;;0.31;72.66
67987;BME280;54767;53.800;15.956;2022-11-20T09:02:07;99541.10;;;0.32;72.68
67987;BME280;54767;53.800;15.956;2022-11-20T09:04:36;99544.08;;;0.33;72.70
67987;BME280;54767;53.800;15.956;2022-11-20T09:07:04;99543.77;;;0.34;72.70
67987;BME280;54767;53.800;15.956;2022-11-20T09:09:32;99540.55;;;0.36;72.44
67987;BME280;54767;53.800;15.956;2022-11-20T09:12:01;99538.25;;;0.40;72.69
67987;BME280;54767;53.800;15.956;2022-11-20T09:14:29;99541.02;;;0.46;72.77
67987;BME280;54767;53.800;15.956;2022-11-20T09:16:58;99543.63;;;0.52;72.41
67987;BME280;54767;53.800;15.956;2022-11-20T09:19:26;99545.70;;;0.58;72.98
67987;BME280;54767;53.800;15.956;2022-11-20T09:22:03;99542.41;;;0.63;73.39
67987;BME280;54767;53.800;15.956;2022-11-20T09:24:31;99543.73;;;0.66;73.58
67987;BME280;54767;53.800;15.956;2022-11-20T09:27:04;99541.41;;;0.70;73.40
67987;BME280;54767;53.800;15.956;2022-11-20T09:29:33;99543.06;;;0.73;73.26
67987;BME280;54767;53.800;15.956;2022-11-20T09:32:01;99540.85;;;0.74;73.00
67987;BME280;54767;53.800;15.956;2022-11-20T09:34:30;99537.95;;;0.76;73.18
67987;BME280;54767;53.800;15.956;2022-11-20T09:36:58;99537.38;;;0.79;72.99
67987;BME280;54767;53.800;15.956;2022-11-20T09:39:33;99538.23;;;0.84;72.81
67987;BME280;54767;53.800;15.956;2022-11-20T09:45:01;99535.02;;;0.93;72.99
67987;BME280;54767;53.800;15.956;2022-11-20T09:47:58;99529.22;;;0.95;73.08
67987;BME280;54767;53.800;15.956;2022-11-20T09:55:52;99525.49;;;0.91;73.25
67987;BME280;54767;53.800;15.956;2022-11-20T10:01:11;99519.61;;;1.01;73.56
67987;BME280;54767;53.800;15.956;2022-11-20T10:06:40;99513.52;;;1.11;73.33
67987;BME280;54767;53.800;15.956;2022-11-20T10:26:42;99511.56;;;1.28;73.40
67987;BME280;54767;53.800;15.956;2022-11-20T10:28:53;99510.07;;;1.30;73.25
67987;BME280;54767;53.800;15.956;2022-11-20T10:33:59;99509.19;;;1.29;73.48
67987;BME280;54767;53.800;15.956;2022-11-20T10:36:44;99504.89;;;1.30;73.71
67987;BME280;54767;53.800;15.956;2022-11-20T10:39:29;99504.70;;;1.30;73.67
67987;BME280;54767;53.800;15.956;2022-11-20T10:42:00;99499.75;;;1.30;73.65
67987;BME280;54767;53.800;15.956;2022-11-20T10:44:29;99492.98;;;1.35;73.57
67987;BME280;54767;53.800;15.956;2022-11-20T10:47:25;99488.23;;;1.39;73.51
67987;BME280;54767;53.800;15.956;2022-11-20T10:49:57;99490.00;;;1.41;73.71
67987;BME280;54767;53.800;15.956;2022-11-20T10:52:31;99485.35;;;1.41;73.69
67987;BME280;54767;53.800;15.956;2022-11-20T10:58:04;99485.60;;;1.37;73.92
67987;BME280;54767;53.800;15.956;2022-11-20T11:00:37;99483.70;;;1.37;73.80
67987;BME280;54767;53.800;15.956;2022-11-20T11:03:27;99480.45;;;1.38;73.66
67987;BME280;54767;53.800;15.956;2022-11-20T11:08:17;99480.56;;;1.42;74.10
67987;BME280;54767;53.800;15.956;2022-11-20T11:10:48;99477.53;;;1.45;73.85
67987;BME280;54767;53.800;15.956;2022-11-20T11:13:24;99470.35;;;1.47;74.09
67987;BME280;54767;53.800;15.956;2022-11-20T11:15:53;99470.06;;;1.50;73.93
67987;BME280;54767;53.800;15.956;2022-11-20T11:18:33;99473.39;;;1.51;73.67
67987;BME280;54767;53.800;15.956;2022-11-20T11:21:04;99468.50;;;1.49;73.64
67987;BME280;54767;53.800;15.956;2022-11-20T11:26:18;99468.24;;;1.52;73.79
67987;BME280;54767;53.800;15.956;2022-11-20T11:31:25;99472.37;;;1.52;73.48
67987;BME280;54767;53.800;15.956;2022-11-20T11:34:08;99471.11;;;1.50;73.79
67987;BME280;54767;53.800;15.956;2022-11-20T11:36:40;99476.55;;;1.47;73.32
67987;BME280;54767;53.800;15.956;2022-11-20T11:39:15;99472.86;;;1.44;73.57
67987;BME280;54767;53.800;15.956;2022-11-20T11:41:45;99472.99;;;1.43;73.65
67987;BME280;54767;53.800;15.956;2022-11-20T11:44:26;99469.06;;;1.44;73.95
67987;BME280;54767;53.800;15.956;2022-11-20T11:47:26;99467.48;;;1.49;73.64
67987;BME280;54767;53.800;15.956;2022-11-20T11:56:03;99466.46;;;1.50;73.59
67987;BME280;54767;53.800;15.956;2022-11-20T11:58:47;99462.28;;;1.49;73.58
67987;BME280;54767;53.800;15.956;2022-11-20T12:06:58;99449.88;;;1.49;73.80
67987;BME280;54767;53.800;15.956;2022-11-20T12:09:52;99447.25;;;1.48;73.42
67987;BME280;54767;53.800;15.956;2022-11-20T12:12:27;99447.82;;;1.50;73.72
67987;BME280;54767;53.800;15.956;2022-11-20T12:14:59;99445.55;;;1.48;73.48
67987;BME280;54767;53.800;15.956;2022-11-20T12:17:27;99449.53;;;1.49;73.72
67987;BME280;54767;53.800;15.956;2022-11-20T12:19:56;99449.54;;;1.49;73.89
67987;BME280;54767;53.800;15.956;2022-11-20T12:22:39;99445.23;;;1.50;73.57
67987;BME280;54767;53.800;15.956;2022-11-20T12:25:23;99443.13;;;1.48;73.90
67987;BME280;54767;53.800;15.956;2022-11-20T12:27:59;99437.33;;;1.51;73.87
67987;BME280;54767;53.800;15.956;2022-11-20T12:30:32;99436.20;;;1.53;73.87
67987;BME280;54767;53.800;15.956;2022-11-20T12:38:48;99422.37;;;1.59;73.94
67987;BME280;54767;53.800;15.956;2022-11-20T12:53:43;99412.94;;;1.62;73.65
67987;BME280;54767;53.800;15.956;2022-11-20T12:56:54;99410.23;;;1.62;73.88
67987;BME280;54767;53.800;15.956;2022-11-20T12:59:55;99413.35;;;1.64;73.72
67987;BME280;54767;53.800;15.956;2022-11-20T13:08:36;99402.23;;;1.61;73.88
67987;BME280;54767;53.800;15.956;2022-11-20T13:11:23;99399.98;;;1.61;73.83
67987;BME280;54767;53.800;15.956;2022-11-20T13:14:05;99399.80;;;1.60;73.79
67987;BME280;54767;53.800;15.956;2022-11-20T13:19:29;99397.26;;;1.62;73.70
67987;BME280;54767;53.800;15.956;2022-11-20T13:21:57;99395.52;;;1.62;73.74
67987;BME280;54767;53.800;15.956;2022-11-20T13:24:29;99391.36;;;1.61;73.86
67987;BME280;54767;53.800;15.956;2022-11-20T13:27:19;99387.20;;;1.60;73.94
67987;BME280;54767;53.800;15.956;2022-11-20T13:30:01;99385.61;;;1.57;73.89
67987;BME280;54767;53.800;15.956;2022-11-20T13:32:30;99387.36;;;1.59;73.92
67987;BME280;54767;53.800;15.956;2022-11-20T13:35:03;99380.70;;;1.62;73.81
67987;BME280;54767;53.800;15.956;2022-11-20T13:37:36;99375.45;;;1.66;74.00
67987;BME280;54767;53.800;15.956;2022-11-20T13:43:02;99373.42;;;1.68;74.12
67987;BME280;54767;53.800;15.956;2022-11-20T13:45:32;99373.20;;;1.65;73.93
67987;BME280;54767;53.800;15.956;2022-11-20T13:48:20;99370.19;;;1.63;73.90
67987;BME280;54767;53.800;15.956;2022-11-20T13:51:22;99371.02;;;1.61;74.02
67987;BME280;54767;53.800;15.956;2022-11-20T14:01:54;99364.88;;;1.64;74.03
67987;BME280;54767;53.800;15.956;2022-11-20T14:04:29;99365.22;;;1.64;73.97
67987;BME280;54767;53.800;15.956;2022-11-20T14:06:58;99363.09;;;1.61;74.01
67987;BME280;54767;53.800;15.956;2022-11-20T14:09:29;99360.45;;;1.59;73.94
67987;BME280;54767;53.800;15.956;2022-11-20T14:11:58;99359.23;;;1.58;73.97
67987;BME280;54767;53.800;15.956;2022-11-20T14:14:29;99356.73;;;1.61;73.75
67987;BME280;54767;53.800;15.956;2022-11-20T14:17:32;99356.24;;;1.63;73.98
67987;BME280;54767;53.800;15.956;2022-11-20T14:20:06;99351.60;;;1.64;73.97
67987;BME280;54767;53.800;15.956;2022-11-20T14:22:39;99350.74;;;1.64;73.94
67987;BME280;54767;53.800;15.956;2022-11-20T14:27:49;99351.07;;;1.63;73.94
67987;BME280;54767;53.800;15.956;2022-11-20T14:30:24;99350.48;;;1.60;74.07
67987;BME280;54767;53.800;15.956;2022-11-20T14:32:56;99346.84;;;1.60;73.92
67987;BME280;54767;53.800;15.956;2022-11-20T14:35:28;99348.27;;;1.62;73.77
67987;BME280;54767;53.800;15.956;2022-11-20T14:37:57;99343.81;;;1.63;73.84
67987;BME280;54767;53.800;15.956;2022-11-20T14:40:30;99348.14;;;1.63;73.80
67987;BME280;54767;53.800;15.956;2022-11-20T14:42:59;99341.73;;;1.62;73.69
67987;BME280;54767;53.800;15.956;2022-11-20T14:45:28;99339.61;;;1.60;73.78
67987;BME280;54767;53.800;15.956;2022-11-20T14:47:57;99336.74;;;1.55;73.82
67987;BME280;54767;53.800;15.956;2022-11-20T14:50:28;99334.05;;;1.51;74.01
67987;BME280;54767;53.800;15.956;2022-11-20T14:52:59;99336.33;;;1.52;73.86
67987;BME280;54767;53.800;15.956;2022-11-20T14:55:36;99333.95;;;1.54;73.94
67987;BME280;54767;53.800;15.956;2022-11-20T14:58:22;99335.38;;;1.55;73.83
67987;BME280;54767;53.800;15.956;2022-11-20T15:00:57;99336.42;;;1.56;73.70
67987;BME280;54767;53.800;15.956;2022-11-20T15:03:34;99335.73;;;1.56;73.95
67987;BME280;54767;53.800;15.956;2022-11-20T15:06:05;99332.77;;;1.54;73.80